sensor_id;sensor_type;location;lat;lon;timestamp;temperature;humidity
3846;DHT22;1938;50.812;7.738;2022-11-20T00:01:21;-0.20;1.00
3846;DHT22;1938;50.812;7.738;2022-11-20T00:03:47;-0.10;24.00
3846;DHT22;1938;50.812;7.738;2022-11-20T00:06:15;-0.10;9.70
3846;DHT22;1938;50.812;7.738;2022-11-20T00:08:41;0.10;99.90
3846;DHT22;1938;50.812;7.738;2022-11-20T00:11:09;0.00;1.00
3846;DHT22;1938;50.812;7.738;2022-11-20T00:13:34;-0.10;1.00
3846;DHT22;1938;50.812;7.738;2022-11-20T00:16:02;-0.10;1.00
3846;DHT22;1938;50.812;7.738;2022-11-20T00:18:28;-0.10;1.00
3846;DHT22;1938;50.812;7.738;2022-11-20T00:21:04;-0.10;1.00
3846;DHT22;1938;50.812;7.738;2022-11-20T00:23:30;-0.20;47.50
3846;DHT22;1938;50.812;7.738;2022-11-20T00:26:01;-0.20;35.90
3846;DHT22;1938;50.812;7.738;2022-11-20T00:28:27;-0.30;67.10
3846;DHT22;1938;50.812;7.738;2022-11-20T00:31:03;-0.20;65.90
3846;DHT22;1938;50.812;7.738;2022-11-20T00:33:30;0.20;99.90
3846;DHT22;1938;50.812;7.738;2022-11-20T00:36:04;-0.10;6.40
3846;DHT22;1938;50.812;7.738;2022-11-20T00:38:30;-0.30;6.40
3846;DHT22;1938;50.812;7.738;2022-11-20T00:40:57;-0.10;44.50
3846;DHT22;1938;50.812;7.738;2022-11-20T00:43:24;-0.20;40.80
3846;DHT22;1938;50.812;7.738;2022-11-20T00:45:50;-0.20;45.00
3846;DHT22;1938;50.812;7.738;2022-11-20T00:48:15;-0.20;37.90
3846;DHT22;1938;50.812;7.738;2022-11-20T00:50:41;-0.30;67.70
3846;DHT22;1938;50.812;7.738;2022-11-20T00:53:07;-0.20;87.20
3846;DHT22;1938;50.812;7.738;2022-11-20T00:55:34;-0.30;45.70
3846;DHT22;1938;50.812;7.738;2022-11-20T00:57:59;-0.20;90.20
3846;DHT22;1938;50.812;7.738;2022-11-20T01:00:25;-0.30;87.10
3846;DHT22;1938;50.812;7.738;2022-11-20T01:02:50;-0.30;64.50
3846;DHT22;1938;50.812;7.738;2022-11-20T01:05:17;-0.20;98.10
3846;DHT22;1938;50.812;7.738;2022-11-20T01:07:42;-0.30;54.20
3846;DHT22;1938;50.812;7.738;2022-11-20T01:10:08;-0.20;64.80
3846;DHT22;1938;50.812;7.738;2022-11-20T01:12:33;-0.30;52.00
3846;DHT22;1938;50.812;7.738;2022-11-20T01:14:59;-0.10;99.90
3846;DHT22;1938;50.812;7.738;2022-11-20T01:17:26;0.10;74.90
3846;DHT22;1938;50.812;7.738;2022-11-20T01:19:51;0.10;1.00
3846;DHT22;1938;50.812;7.738;2022-11-20T01:22:17;-0.10;1.00
3846;DHT22;1938;50.812;7.738;2022-11-20T01:24:42;-0.20;1.00
3846;DHT22;1938;50.812;7.738;2022-11-20T01:27:09;-0.30;99.90
3846;DHT22;1938;50.812;7.738;2022-11-20T01:29:34;-0.20;1.00
3846;DHT22;1938;50.812;7.738;2022-11-20T01:32:00;-0.20;1.00
3846;DHT22;1938;50.812;7.738;2022-11-20T01:34:25;-0.20;1.00
3846;DHT22;1938;50.812;7.738;2022-11-20T01:36:52;-0.30;1.00
3846;DHT22;1938;50.812;7.738;2022-11-20T01:39:23;-0.20;1.00
3846;DHT22;1938;50.812;7.738;2022-11-20T01:41:52;-0.20;1.00
3846;DHT22;1938;50.812;7.738;2022-11-20T01:44:51;-0.30;1.00
3846;DHT22;1938;50.812;7.738;2022-11-20T01:47:42;-0.40;1.00
3846;DHT22;1938;50.812;7.738;2022-11-20T01:50:15;-0.40;1.00
3846;DHT22;1938;50.812;7.738;2022-11-20T01:52:47;-0.40;1.00
3846;DHT22;1938;50.812;7.738;2022-11-20T01:55:21;-0.50;1.00
3846;DHT22;1938;50.812;7.738;2022-11-20T01:57:49;-0.40;18.10
3846;DHT22;1938;50.812;7.738;2022-11-20T02:00:17;-0.40;14.20
3846;DHT22;1938;50.812;7.738;2022-11-20T02:02:45;-0.40;1.00
3846;DHT22;1938;50.812;7.738;2022-11-20T02:08:15;-0.20;1.00
3846;DHT22;1938;50.812;7.738;2022-11-20T02:10:42;-0.30;1.00
3846;DHT22;1938;50.812;7.738;2022-11-20T02:13:08;-0.40;1.00
3846;DHT22;1938;50.812;7.738;2022-11-20T02:15:53;-0.30;1.00
3846;DHT22;1938;50.812;7.738;2022-11-20T02:18:20;-0.30;1.00
3846;DHT22;1938;50.812;7.738;2022-11-20T02:20:48;-0.40;1.00
3846;DHT22;1938;50.812;7.738;2022-11-20T02:23:39;-0.40;1.00
3846;DHT22;1938;50.812;7.738;2022-11-20T02:26:08;-0.40;44.60
3846;DHT22;1938;50.812;7.738;2022-11-20T02:28:36;-0.30;64.20
3846;DHT22;1938;50.812;7.738;2022-11-20T02:31:02;-0.20;11.50
3846;DHT22;1938;50.812;7.738;2022-11-20T02:33:28;-0.30;1.00
3846;DHT22;1938;50.812;7.738;2022-11-20T02:35:53;-0.40;1.00
3846;DHT22;1938;50.812;7.738;2022-11-20T02:38:19;-0.50;1.00
3846;DHT22;1938;50.812;7.738;2022-11-20T02:40:45;-0.40;1.00
3846;DHT22;1938;50.812;7.738;2022-11-20T02:43:10;-0.40;1.00
3846;DHT22;1938;50.812;7.738;2022-11-20T02:45:36;-0.40;6.80
3846;DHT22;1938;50.812;7.738;2022-11-20T02:48:02;-0.40;8.80
3846;DHT22;1938;50.812;7.738;2022-11-20T02:50:27;-0.40;1.00
3846;DHT22;1938;50.812;7.738;2022-11-20T02:52:53;-0.40;15.60
3846;DHT22;1938;50.812;7.738;2022-11-20T02:55:18;-0.50;1.00
3846;DHT22;1938;50.812;7.738;2022-11-20T02:57:44;-0.40;20.10
3846;DHT22;1938;50.812;7.738;2022-11-20T03:00:10;-0.30;33.00
3846;DHT22;1938;50.812;7.738;2022-11-20T03:02:36;-0.20;27.70
3846;DHT22;1938;50.812;7.738;2022-11-20T03:05:02;-0.20;1.00
3846;DHT22;1938;50.812;7.738;2022-11-20T03:07:28;-0.30;1.00
3846;DHT22;1938;50.812;7.738;2022-11-20T03:09:53;-0.90;1.00
3846;DHT22;1938;50.812;7.738;2022-11-20T03:12:19;-1.80;99.90
3846;DHT22;1938;50.812;7.738;2022-11-20T03:14:46;-2.40;99.90
3846;DHT22;1938;50.812;7.738;2022-11-20T03:17:11;-2.70;99.90
3846;DHT22;1938;50.812;7.738;2022-11-20T03:19:37;-2.30;99.90
3846;DHT22;1938;50.812;7.738;2022-11-20T03:22:02;-2.10;99.90
3846;DHT22;1938;50.812;7.738;2022-11-20T03:24:28;-1.10;99.90
3846;DHT22;1938;50.812;7.738;2022-11-20T03:26:53;-0.80;99.90
3846;DHT22;1938;50.812;7.738;2022-11-20T03:29:19;-0.70;99.90
3846;DHT22;1938;50.812;7.738;2022-11-20T03:31:45;-0.60;99.90
3846;DHT22;1938;50.812;7.738;2022-11-20T03:34:11;-0.50;99.90
3846;DHT22;1938;50.812;7.738;2022-11-20T03:36:39;-0.60;47.70
3846;DHT22;1938;50.812;7.738;2022-11-20T03:39:06;-0.50;99.90
3846;DHT22;1938;50.812;7.738;2022-11-20T03:41:36;-0.40;99.90
3846;DHT22;1938;50.812;7.738;2022-11-20T03:44:04;-0.30;99.90
3846;DHT22;1938;50.812;7.738;2022-11-20T03:46:30;-0.40;44.30
3846;DHT22;1938;50.812;7.738;2022-11-20T03:48:56;-0.40;98.80
3846;DHT22;1938;50.812;7.738;2022-11-20T03:51:25;-0.20;99.90
3846;DHT22;1938;50.812;7.738;2022-11-20T03:53:53;-0.20;97.50
3846;DHT22;1938;50.812;7.738;2022-11-20T03:56:22;-0.20;99.90
3846;DHT22;1938;50.812;7.738;2022-11-20T03:58:48;-0.20;66.30
3846;DHT22;1938;50.812;7.738;2022-11-20T04:01:16;-0.20;92.10
3846;DHT22;1938;50.812;7.738;2022-11-20T04:03:43;-0.20;89.40
3846;DHT22;1938;50.812;7.738;2022-11-20T04:06:20;-0.30;90.60
3846;DHT22;1938;50.812;7.738;2022-11-20T04:08:46;-0.20;99.90
3846;DHT22;1938;50.812;7.738;2022-11-20T04:11:26;-0.20;98.00
3846;DHT22;1938;50.812;7.738;2022-11-20T04:13:54;-0.50;99.90
3846;DHT22;1938;50.812;7.738;2022-11-20T04:16:21;-1.00;99.90
3846;DHT22;1938;50.812;7.738;2022-11-20T04:18:50;-1.50;1.00
3846;DHT22;1938;50.812;7.738;2022-11-20T04:21:16;-1.30;99.90
3846;DHT22;1938;50.812;7.738;2022-11-20T04:23:41;-1.10;99.90
3846;DHT22;1938;50.812;7.738;2022-11-20T04:26:09;-1.00;99.90
3846;DHT22;1938;50.812;7.738;2022-11-20T04:28:35;-0.80;99.90
3846;DHT22;1938;50.812;7.738;2022-11-20T04:31:09;-0.60;99.90
3846;DHT22;1938;50.812;7.738;2022-11-20T04:33:36;-0.40;99.90
3846;DHT22;1938;50.812;7.738;2022-11-20T04:36:05;-0.20;99.90
3846;DHT22;1938;50.812;7.738;2022-11-20T04:38:30;0.00;99.90
3846;DHT22;1938;50.812;7.738;2022-11-20T04:41:00;0.20;99.90
3846;DHT22;1938;50.812;7.738;2022-11-20T04:43:27;0.30;99.90
3846;DHT22;1938;50.812;7.738;2022-11-20T04:45:58;0.50;99.90
3846;DHT22;1938;50.812;7.738;2022-11-20T04:48:24;0.50;99.90
3846;DHT22;1938;50.812;7.738;2022-11-20T04:50:51;0.60;99.90
3846;DHT22;1938;50.812;7.738;2022-11-20T04:53:17;0.70;99.90
3846;DHT22;1938;50.812;7.738;2022-11-20T04:55:43;0.80;99.90
3846;DHT22;1938;50.812;7.738;2022-11-20T04:58:09;0.80;6.80
3846;DHT22;1938;50.812;7.738;2022-11-20T05:00:34;0.70;1.00
3846;DHT22;1938;50.812;7.738;2022-11-20T05:03:00;0.70;1.00
3846;DHT22;1938;50.812;7.738;2022-11-20T05:05:25;0.30;1.00
3846;DHT22;1938;50.812;7.738;2022-11-20T05:07:52;0.40;6.40
3846;DHT22;1938;50.812;7.738;2022-11-20T05:10:18;0.40;21.40
3846;DHT22;1938;50.812;7.738;2022-11-20T05:12:43;0.40;25.70
3846;DHT22;1938;50.812;7.738;2022-11-20T05:15:09;0.40;47.60
3846;DHT22;1938;50.812;7.738;2022-11-20T05:17:35;0.40;42.80
3846;DHT22;1938;50.812;7.738;2022-11-20T05:20:00;0.50;47.30
3846;DHT22;1938;50.812;7.738;2022-11-20T05:22:26;0.50;37.10
3846;DHT22;1938;50.812;7.738;2022-11-20T05:24:51;0.70;50.00
3846;DHT22;1938;50.812;7.738;2022-11-20T05:27:17;0.80;53.30
3846;DHT22;1938;50.812;7.738;2022-11-20T05:29:42;0.90;43.60
3846;DHT22;1938;50.812;7.738;2022-11-20T05:32:09;0.90;13.40
3846;DHT22;1938;50.812;7.738;2022-11-20T05:34:35;1.00;14.70
3846;DHT22;1938;50.812;7.738;2022-11-20T05:37:02;1.10;1.00
3846;DHT22;1938;50.812;7.738;2022-11-20T05:39:27;1.10;1.00
3846;DHT22;1938;50.812;7.738;2022-11-20T05:41:54;1.10;1.00
3846;DHT22;1938;50.812;7.738;2022-11-20T05:44:39;1.20;1.00
3846;DHT22;1938;50.812;7.738;2022-11-20T05:47:05;1.20;1.00
3846;DHT22;1938;50.812;7.738;2022-11-20T05:49:31;1.30;1.00
3846;DHT22;1938;50.812;7.738;2022-11-20T05:51:57;1.30;1.00
3846;DHT22;1938;50.812;7.738;2022-11-20T05:54:23;1.40;1.00
3846;DHT22;1938;50.812;7.738;2022-11-20T05:56:49;1.30;99.90
3846;DHT22;1938;50.812;7.738;2022-11-20T05:59:15;1.40;1.00
3846;DHT22;1938;50.812;7.738;2022-11-20T06:01:40;1.40;99.90
3846;DHT22;1938;50.812;7.738;2022-11-20T06:04:07;1.40;99.90
3846;DHT22;1938;50.812;7.738;2022-11-20T06:06:32;1.40;99.90
3846;DHT22;1938;50.812;7.738;2022-11-20T06:08:58;1.50;99.90
3846;DHT22;1938;50.812;7.738;2022-11-20T06:11:24;1.50;1.00
3846;DHT22;1938;50.812;7.738;2022-11-20T06:13:50;1.50;99.90
3846;DHT22;1938;50.812;7.738;2022-11-20T06:16:19;1.60;99.90
3846;DHT22;1938;50.812;7.738;2022-11-20T06:18:45;1.60;99.90
3846;DHT22;1938;50.812;7.738;2022-11-20T06:21:13;1.60;99.90
3846;DHT22;1938;50.812;7.738;2022-11-20T06:23:40;1.60;99.90
3846;DHT22;1938;50.812;7.738;2022-11-20T06:26:11;1.60;99.90
3846;DHT22;1938;50.812;7.738;2022-11-20T06:28:37;1.60;99.90
3846;DHT22;1938;50.812;7.738;2022-11-20T06:31:04;1.60;1.00
3846;DHT22;1938;50.812;7.738;2022-11-20T06:33:31;1.70;99.90
3846;DHT22;1938;50.812;7.738;2022-11-20T06:36:00;1.60;1.00
3846;DHT22;1938;50.812;7.738;2022-11-20T06:38:27;1.60;99.90
3846;DHT22;1938;50.812;7.738;2022-11-20T06:40:54;1.60;1.00
3846;DHT22;1938;50.812;7.738;2022-11-20T06:43:21;1.60;1.00
3846;DHT22;1938;50.812;7.738;2022-11-20T06:45:55;1.60;1.00
3846;DHT22;1938;50.812;7.738;2022-11-20T06:48:22;1.60;1.00
3846;DHT22;1938;50.812;7.738;2022-11-20T06:50:48;1.60;99.90
3846;DHT22;1938;50.812;7.738;2022-11-20T06:53:13;1.60;99.90
3846;DHT22;1938;50.812;7.738;2022-11-20T06:55:44;1.60;1.00
3846;DHT22;1938;50.812;7.738;2022-11-20T06:58:10;1.60;1.00
3846;DHT22;1938;50.812;7.738;2022-11-20T07:00:35;1.70;1.00
3846;DHT22;1938;50.812;7.738;2022-11-20T07:03:05;1.70;99.90
3846;DHT22;1938;50.812;7.738;2022-11-20T07:05:30;1.70;1.00
3846;DHT22;1938;50.812;7.738;2022-11-20T07:07:57;1.70;99.90
3846;DHT22;1938;50.812;7.738;2022-11-20T07:10:23;1.70;99.90
3846;DHT22;1938;50.812;7.738;2022-11-20T07:12:50;1.70;99.90
3846;DHT22;1938;50.812;7.738;2022-11-20T07:15:16;1.60;99.90
3846;DHT22;1938;50.812;7.738;2022-11-20T07:17:42;1.60;99.90
3846;DHT22;1938;50.812;7.738;2022-11-20T07:20:08;1.60;85.50
3846;DHT22;1938;50.812;7.738;2022-11-20T07:22:33;1.50;7.50
3846;DHT22;1938;50.812;7.738;2022-11-20T07:24:59;1.60;99.90
3846;DHT22;1938;50.812;7.738;2022-11-20T07:27:25;1.70;99.90
3846;DHT22;1938;50.812;7.738;2022-11-20T07:29:50;1.70;99.90
3846;DHT22;1938;50.812;7.738;2022-11-20T07:32:17;1.70;99.90
3846;DHT22;1938;50.812;7.738;2022-11-20T07:34:42;1.80;99.90
3846;DHT22;1938;50.812;7.738;2022-11-20T07:37:08;1.80;99.90
3846;DHT22;1938;50.812;7.738;2022-11-20T07:39:33;1.90;99.90
3846;DHT22;1938;50.812;7.738;2022-11-20T07:41:59;1.80;26.40
3846;DHT22;1938;50.812;7.738;2022-11-20T07:44:24;1.90;99.90
3846;DHT22;1938;50.812;7.738;2022-11-20T07:46:50;1.90;99.90
3846;DHT22;1938;50.812;7.738;2022-11-20T07:49:15;2.00;99.90
3846;DHT22;1938;50.812;7.738;2022-11-20T07:51:41;2.00;99.90
3846;DHT22;1938;50.812;7.738;2022-11-20T07:54:06;2.00;99.90
3846;DHT22;1938;50.812;7.738;2022-11-20T07:56:32;2.10;99.90
3846;DHT22;1938;50.812;7.738;2022-11-20T07:58:57;2.20;99.90
3846;DHT22;1938;50.812;7.738;2022-11-20T08:01:23;2.20;99.90
3846;DHT22;1938;50.812;7.738;2022-11-20T08:03:49;2.20;1.00
3846;DHT22;1938;50.812;7.738;2022-11-20T08:06:15;2.10;1.00
3846;DHT22;1938;50.812;7.738;2022-11-20T08:08:40;2.20;1.00
3846;DHT22;1938;50.812;7.738;2022-11-20T08:11:06;2.20;1.00
3846;DHT22;1938;50.812;7.738;2022-11-20T08:13:50;2.20;1.00
3846;DHT22;1938;50.812;7.738;2022-11-20T08:16:34;2.20;99.90
3846;DHT22;1938;50.812;7.738;2022-11-20T08:19:00;2.20;99.90
3846;DHT22;1938;50.812;7.738;2022-11-20T08:21:25;2.20;99.90
3846;DHT22;1938;50.812;7.738;2022-11-20T08:23:51;2.30;99.90
3846;DHT22;1938;50.812;7.738;2022-11-20T08:26:17;2.30;99.90
3846;DHT22;1938;50.812;7.738;2022-11-20T08:28:42;2.40;1.00
3846;DHT22;1938;50.812;7.738;2022-11-20T08:31:09;2.50;1.00
3846;DHT22;1938;50.812;7.738;2022-11-20T08:33:35;2.60;99.90
3846;DHT22;1938;50.812;7.738;2022-11-20T08:36:05;2.70;99.90
3846;DHT22;1938;50.812;7.738;2022-11-20T08:38:31;2.80;1.00
3846;DHT22;1938;50.812;7.738;2022-11-20T08:41:01;2.90;99.90
3846;DHT22;1938;50.812;7.738;2022-11-20T08:43:46;2.90;99.90
3846;DHT22;1938;50.812;7.738;2022-11-20T08:46:12;3.00;99.90
3846;DHT22;1938;50.812;7.738;2022-11-20T08:48:37;2.90;99.90
3846;DHT22;1938;50.812;7.738;2022-11-20T08:51:03;2.90;35.70
3846;DHT22;1938;50.812;7.738;2022-11-20T08:53:29;3.00;99.90
3846;DHT22;1938;50.812;7.738;2022-11-20T08:55:56;3.10;1.00
3846;DHT22;1938;50.812;7.738;2022-11-20T08:58:22;3.20;1.00
3846;DHT22;1938;50.812;7.738;2022-11-20T09:00:48;3.30;1.00
3846;DHT22;1938;50.812;7.738;2022-11-20T09:03:13;3.40;99.90
3846;DHT22;1938;50.812;7.738;2022-11-20T09:05:39;3.40;99.90
3846;DHT22;1938;50.812;7.738;2022-11-20T09:08:05;3.50;1.00
3846;DHT22;1938;50.812;7.738;2022-11-20T09:10:30;3.40;99.90
3846;DHT22;1938;50.812;7.738;2022-11-20T09:12:56;3.40;99.90
3846;DHT22;1938;50.812;7.738;2022-11-20T09:15:22;3.40;99.90
3846;DHT22;1938;50.812;7.738;2022-11-20T09:18:00;3.50;99.90
3846;DHT22;1938;50.812;7.738;2022-11-20T09:20:27;3.40;99.90
3846;DHT22;1938;50.812;7.738;2022-11-20T09:22:54;3.40;99.90
3846;DHT22;1938;50.812;7.738;2022-11-20T09:25:21;3.50;99.90
3846;DHT22;1938;50.812;7.738;2022-11-20T09:27:47;3.50;99.90
3846;DHT22;1938;50.812;7.738;2022-11-20T09:30:14;3.60;99.90
3846;DHT22;1938;50.812;7.738;2022-11-20T09:32:44;3.20;1.00
3846;DHT22;1938;50.812;7.738;2022-11-20T09:35:09;2.90;99.90
3846;DHT22;1938;50.812;7.738;2022-11-20T09:37:35;2.60;1.00
3846;DHT22;1938;50.812;7.738;2022-11-20T09:40:01;2.70;1.00
3846;DHT22;1938;50.812;7.738;2022-11-20T09:51:19;3.60;99.90
3846;DHT22;1938;50.812;7.738;2022-11-20T09:54:17;3.80;1.00
3846;DHT22;1938;50.812;7.738;2022-11-20T09:57:08;3.90;1.00
3846;DHT22;1938;50.812;7.738;2022-11-20T09:59:42;4.10;99.90
3846;DHT22;1938;50.812;7.738;2022-11-20T10:05:01;4.00;99.90
3846;DHT22;1938;50.812;7.738;2022-11-20T10:08:16;4.10;96.40
3846;DHT22;1938;50.812;7.738;2022-11-20T10:10:38;4.10;1.00
3846;DHT22;1938;50.812;7.738;2022-11-20T10:13:31;3.90;54.40
3846;DHT22;1938;50.812;7.738;2022-11-20T10:21:30;4.10;99.90
3846;DHT22;1938;50.812;7.738;2022-11-20T10:29:33;4.60;1.00
3846;DHT22;1938;50.812;7.738;2022-11-20T10:32:09;4.70;1.00
3846;DHT22;1938;50.812;7.738;2022-11-20T10:35:01;4.80;1.00
3846;DHT22;1938;50.812;7.738;2022-11-20T10:37:31;4.80;99.90
3846;DHT22;1938;50.812;7.738;2022-11-20T10:42:46;4.80;99.90
3846;DHT22;1938;50.812;7.738;2022-11-20T10:45:27;4.90;99.90
3846;DHT22;1938;50.812;7.738;2022-11-20T10:48:07;5.10;99.90
3846;DHT22;1938;50.812;7.738;2022-11-20T10:50:37;5.30;99.90
3846;DHT22;1938;50.812;7.738;2022-11-20T10:53:16;5.20;96.50
3846;DHT22;1938;50.812;7.738;2022-11-20T10:55:45;5.30;90.40
3846;DHT22;1938;50.812;7.738;2022-11-20T11:01:17;5.70;99.90
3846;DHT22;1938;50.812;7.738;2022-11-20T11:03:44;5.80;91.50
3846;DHT22;1938;50.812;7.738;2022-11-20T11:06:32;5.80;43.30
3846;DHT22;1938;50.812;7.738;2022-11-20T11:09:02;5.90;65.20
3846;DHT22;1938;50.812;7.738;2022-11-20T11:11:30;6.00;1.00
3846;DHT22;1938;50.812;7.738;2022-11-20T11:14:09;6.10;1.00
3846;DHT22;1938;50.812;7.738;2022-11-20T11:16:35;6.10;1.00
3846;DHT22;1938;50.812;7.738;2022-11-20T11:19:12;6.20;1.00
3846;DHT22;1938;50.812;7.738;2022-11-20T11:21:38;6.30;1.00
3846;DHT22;1938;50.812;7.738;2022-11-20T11:24:23;6.20;1.00
3846;DHT22;1938;50.812;7.738;2022-11-20T11:27:03;6.20;1.00
3846;DHT22;1938;50.812;7.738;2022-11-20T11:29:30;6.10;1.00
3846;DHT22;1938;50.812;7.738;2022-11-20T11:32:15;6.10;1.00
3846;DHT22;1938;50.812;7.738;2022-11-20T11:34:42;6.00;1.00
3846;DHT22;1938;50.812;7.738;2022-11-20T11:37:17;6.10;1.00
3846;DHT22;1938;50.812;7.738;2022-11-20T11:39:44;5.90;1.00
3846;DHT22;1938;50.812;7.738;2022-11-20T11:42:17;4.80;1.00
3846;DHT22;1938;50.812;7.738;2022-11-20T11:44:48;3.90;1.00
3846;DHT22;1938;50.812;7.738;2022-11-20T11:52:49;2.80;99.90
3846;DHT22;1938;50.812;7.738;2022-11-20T11:55:25;2.80;92.40
3846;DHT22;1938;50.812;7.738;2022-11-20T12:00:36;2.60;99.90
3846;DHT22;1938;50.812;7.738;2022-11-20T12:03:15;2.60;1.00
3846;DHT22;1938;50.812;7.738;2022-11-20T12:05:58;2.50;1.00
3846;DHT22;1938;50.812;7.738;2022-11-20T12:08:32;2.50;1.00
3846;DHT22;1938;50.812;7.738;2022-11-20T12:11:12;2.40;1.00
3846;DHT22;1938;50.812;7.738;2022-11-20T12:13:44;2.50;9.90
3846;DHT22;1938;50.812;7.738;2022-11-20T12:16:14;2.60;12.00
3846;DHT22;1938;50.812;7.738;2022-11-20T12:18:41;2.60;1.00
3846;DHT22;1938;50.812;7.738;2022-11-20T12:40:39;3.50;99.90
3846;DHT22;1938;50.812;7.738;2022-11-20T12:49:09;3.90;26.20
3846;DHT22;1938;50.812;7.738;2022-11-20T12:54:46;4.10;88.90
3846;DHT22;1938;50.812;7.738;2022-11-20T13:08:29;4.30;99.90
3846;DHT22;1938;50.812;7.738;2022-11-20T13:18:51;4.50;1.00
3846;DHT22;1938;50.812;7.738;2022-11-20T13:21:38;4.60;24.90
3846;DHT22;1938;50.812;7.738;2022-11-20T13:24:06;4.50;1.00
3846;DHT22;1938;50.812;7.738;2022-11-20T13:26:32;4.40;99.90
3846;DHT22;1938;50.812;7.738;2022-11-20T13:29:18;4.40;99.90
3846;DHT22;1938;50.812;7.738;2022-11-20T13:31:48;4.40;1.00
3846;DHT22;1938;50.812;7.738;2022-11-20T13:34:23;4.30;1.00
3846;DHT22;1938;50.812;7.738;2022-11-20T13:36:51;4.30;1.00
3846;DHT22;1938;50.812;7.738;2022-11-20T13:39:34;4.30;99.90
3846;DHT22;1938;50.812;7.738;2022-11-20T13:44:38;4.40;99.90
3846;DHT22;1938;50.812;7.738;2022-11-20T13:49:45;4.60;99.90
3846;DHT22;1938;50.812;7.738;2022-11-20T13:58:05;4.50;1.00
3846;DHT22;1938;50.812;7.738;2022-11-20T14:00:33;4.40;99.90
3846;DHT22;1938;50.812;7.738;2022-11-20T14:03:20;4.20;99.90
3846;DHT22;1938;50.812;7.738;2022-11-20T14:05:57;4.10;1.00
3846;DHT22;1938;50.812;7.738;2022-11-20T14:08:38;4.20;13.90
3846;DHT22;1938;50.812;7.738;2022-11-20T14:11:23;4.20;1.00
3846;DHT22;1938;50.812;7.738;2022-11-20T14:14:17;4.00;20.70
3846;DHT22;1938;50.812;7.738;2022-11-20T14:16:47;4.00;98.70
3846;DHT22;1938;50.812;7.738;2022-11-20T14:21:48;3.90;99.90
3846;DHT22;1938;50.812;7.738;2022-11-20T14:24:20;3.90;99.90
3846;DHT22;1938;50.812;7.738;2022-11-20T14:26:46;3.80;99.90
3846;DHT22;1938;50.812;7.738;2022-11-20T14:29:18;3.80;99.90
3846;DHT22;1938;50.812;7.738;2022-11-20T14:31:45;3.80;99.90
3846;DHT22;1938;50.812;7.738;2022-11-20T14:34:21;3.70;99.90
3846;DHT22;1938;50.812;7.738;2022-11-20T14:36:47;3.70;99.90
3846;DHT22;1938;50.812;7.738;2022-11-20T14:39:34;3.70;99.90
3846;DHT22;1938;50.812;7.738;2022-11-20T14:42:00;3.80;99.90
3846;DHT22;1938;50.812;7.738;2022-11-20T14:44:30;3.80;99.90
3846;DHT22;1938;50.812;7.738;2022-11-20T14:46:59;3.80;99.90
3846;DHT22;1938;50.812;7.738;2022-11-20T14:49:26;3.80;99.90
3846;DHT22;1938;50.812;7.738;2022-11-20T14:52:02;3.80;99.90
3846;DHT22;1938;50.812;7.738;2022-11-20T14:54:28;3.80;99.90
3846;DHT22;1938;50.812;7.738;2022-11-20T14:57:00;3.80;99.90
3846;DHT22;1938;50.812;7.738;2022-11-20T14:59:32;3.70;99.90
3846;DHT22;1938;50.812;7.738;2022-11-20T15:02:09;3.70;99.90
3846;DHT22;1938;50.812;7.738;2022-11-20T15:04:46;3.70;99.90
3846;DHT22;1938;50.812;7.738;2022-11-20T15:07:23;3.70;99.90
3846;DHT22;1938;50.812;7.738;2022-11-20T15:09:59;3.60;99.90
3846;DHT22;1938;50.812;7.738;2022-11-20T15:12:25;3.60;99.90
3846;DHT22;1938;50.812;7.738;2022-11-20T15:14:51;3.60;99.90
3846;DHT22;1938;50.812;7.738;2022-11-20T15:17:16;3.60;99.90
3846;DHT22;1938;50.812;7.738;2022-11-20T15:19:43;3.50;99.90
3846;DHT22;1938;50.812;7.738;2022-11-20T15:22:12;3.50;99.90
3846;DHT22;1938;50.812;7.738;2022-11-20T15:24:44;3.60;99.90
3846;DHT22;1938;50.812;7.738;2022-11-20T15:27:10;3.60;99.90
3846;DHT22;1938;50.812;7.738;2022-11-20T15:29:36;3.60;99.90
3846;DHT22;1938;50.812;7.738;2022-11-20T15:32:02;3.60;99.90
3846;DHT22;1938;50.812;7.738;2022-11-20T15:34:28;3.60;99.90
3846;DHT22;1938;50.812;7.738;2022-11-20T15:36:54;3.50;99.90
3846;DHT22;1938;50.812;7.738;2022-11-20T15:39:20;3.40;99.90
3846;DHT22;1938;50.812;7.738;2022-11-20T15:41:46;3.20;99.90
3846;DHT22;1938;50.812;7.738;2022-11-20T15:44:12;3.20;99.90
3846;DHT22;1938;50.812;7.738;2022-11-20T15:46:40;3.20;99.90
3846;DHT22;1938;50.812;7.738;2022-11-20T15:49:13;3.20;99.90
3846;DHT22;1938;50.812;7.738;2022-11-20T15:51:42;3.30;99.90
3846;DHT22;1938;50.812;7.738;2022-11-20T15:54:21;3.30;99.90
3846;DHT22;1938;50.812;7.738;2022-11-20T15:56:49;3.30;99.90
3846;DHT22;1938;50.812;7.738;2022-11-20T15:59:17;3.40;99.90
3846;DHT22;1938;50.812;7.738;2022-11-20T16:01:43;3.40;99.90
3846;DHT22;1938;50.812;7.738;2022-11-20T16:04:12;3.40;99.90
3846;DHT22;1938;50.812;7.738;2022-11-20T16:06:38;3.40;99.90
3846;DHT22;1938;50.812;7.738;2022-11-20T16:09:04;3.50;99.90
3846;DHT22;1938;50.812;7.738;2022-11-20T16:11:30;3.50;99.90
3846;DHT22;1938;50.812;7.738;2022-11-20T16:13:55;3.40;99.90
3846;DHT22;1938;50.812;7.738;2022-11-20T16:16:39;3.40;99.90
3846;DHT22;1938;50.812;7.738;2022-11-20T16:19:10;3.30;99.90
3846;DHT22;1938;50.812;7.738;2022-11-20T16:21:36;3.60;99.90
3846;DHT22;1938;50.812;7.738;2022-11-20T16:24:06;3.80;99.90
3846;DHT22;1938;50.812;7.738;2022-11-20T16:26:32;3.90;99.90
3846;DHT22;1938;50.812;7.738;2022-11-20T16:29:03;4.10;99.90
3846;DHT22;1938;50.812;7.738;2022-11-20T16:31:29;4.30;99.90
3846;DHT22;1938;50.812;7.738;2022-11-20T16:33:56;4.50;99.90
3846;DHT22;1938;50.812;7.738;2022-11-20T16:36:24;4.70;99.90
3846;DHT22;1938;50.812;7.738;2022-11-20T16:38:55;4.90;99.90
3846;DHT22;1938;50.812;7.738;2022-11-20T16:41:22;5.00;99.90
3846;DHT22;1938;50.812;7.738;2022-11-20T16:43:49;5.10;99.90
3846;DHT22;1938;50.812;7.738;2022-11-20T16:46:17;5.20;99.90
3846;DHT22;1938;50.812;7.738;2022-11-20T16:48:43;5.20;99.90
3846;DHT22;1938;50.812;7.738;2022-11-20T16:51:10;5.30;99.90
3846;DHT22;1938;50.812;7.738;2022-11-20T16:53:36;5.30;99.90
3846;DHT22;1938;50.812;7.738;2022-11-20T16:56:13;5.40;99.90
3846;DHT22;1938;50.812;7.738;2022-11-20T16:58:44;5.40;99.90
3846;DHT22;1938;50.812;7.738;2022-11-20T17:01:12;5.40;99.90
3846;DHT22;1938;50.812;7.738;2022-11-20T17:03:42;5.50;99.90
3846;DHT22;1938;50.812;7.738;2022-11-20T17:06:16;5.50;99.90
3846;DHT22;1938;50.812;7.738;2022-11-20T17:08:43;5.40;99.90
3846;DHT22;1938;50.812;7.738;2022-11-20T17:11:11;5.40;99.90
3846;DHT22;1938;50.812;7.738;2022-11-20T17:13:38;5.40;99.90
3846;DHT22;1938;50.812;7.738;2022-11-20T17:16:12;5.40;99.90
3846;DHT22;1938;50.812;7.738;2022-11-20T17:18:38;5.40;99.90
3846;DHT22;1938;50.812;7.738;2022-11-20T17:21:04;5.40;99.90
3846;DHT22;1938;50.812;7.738;2022-11-20T17:23:38;5.40;99.90
3846;DHT22;1938;50.812;7.738;2022-11-20T17:26:08;5.40;99.90
3846;DHT22;1938;50.812;7.738;2022-11-20T17:28:35;5.30;99.90
3846;DHT22;1938;50.812;7.738;2022-11-20T17:31:10;5.30;99.90
3846;DHT22;1938;50.812;7.738;2022-11-20T17:33:38;5.20;99.90
3846;DHT22;1938;50.812;7.738;2022-11-20T17:36:05;5.20;99.90
3846;DHT22;1938;50.812;7.738;2022-11-20T17:38:31;5.20;99.90
3846;DHT22;1938;50.812;7.738;2022-11-20T17:41:07;5.20;99.90
3846;DHT22;1938;50.812;7.738;2022-11-20T17:43:33;5.20;99.90
3846;DHT22;1938;50.812;7.738;2022-11-20T17:46:06;5.20;99.90
3846;DHT22;1938;50.812;7.738;2022-11-20T17:48:33;5.20;99.90
3846;DHT22;1938;50.812;7.738;2022-11-20T17:51:00;5.20;99.90
3846;DHT22;1938;50.812;7.738;2022-11-20T17:53:26;5.10;99.90
3846;DHT22;1938;50.812;7.738;2022-11-20T17:55:56;4.80;99.90
3846;DHT22;1938;50.812;7.738;2022-11-20T17:58:40;4.70;99.90
3846;DHT22;1938;50.812;7.738;2022-11-20T18:01:07;4.40;99.90
3846;DHT22;1938;50.812;7.738;2022-11-20T18:03:32;4.40;99.90
3846;DHT22;1938;50.812;7.738;2022-11-20T18:05:58;4.30;99.90
3846;DHT22;1938;50.812;7.738;2022-11-20T18:08:23;4.30;99.90
3846;DHT22;1938;50.812;7.738;2022-11-20T18:10:51;4.30;99.90
3846;DHT22;1938;50.812;7.738;2022-11-20T18:13:17;4.20;99.90